createdAt,value
2018-10-19T00:00:35.197Z,12.78
2018-10-19T00:02:28.031Z,12.82
2018-10-19T00:03:27.977Z,12.73
2018-10-19T00:05:20.789Z,12.72
2018-10-19T00:06:20.744Z,12.68
2018-10-19T00:08:13.557Z,12.67
2018-10-19T00:09:13.588Z,12.65
2018-10-19T00:11:06.839Z,12.76
2018-10-19T00:12:06.768Z,12.61
2018-10-19T00:13:59.576Z,12.62
2018-10-19T00:14:59.587Z,12.64
2018-10-19T00:16:52.354Z,12.61
2018-10-19T00:17:52.309Z,12.67
2018-10-19T00:19:45.123Z,12.67
2018-10-19T00:20:45.083Z,12.49
2018-10-19T00:22:38.393Z,12.60
2018-10-19T00:23:38.355Z,12.50
2018-10-19T00:25:31.154Z,12.46
2018-10-19T00:26:31.125Z,12.40
2018-10-19T00:28:23.930Z,12.35
2018-10-19T00:29:23.884Z,12.36
2018-10-19T00:31:17.208Z,12.32
2018-10-19T00:32:17.148Z,12.25
2018-10-19T00:34:09.964Z,12.18
2018-10-19T00:35:10.021Z,12.18
2018-10-19T00:37:02.746Z,12.12
2018-10-19T00:38:02.684Z,12.17
2018-10-19T00:39:55.994Z,12.10
2018-10-19T00:40:55.999Z,12.07
2018-10-19T00:42:49.274Z,12.00
2018-10-19T00:43:49.229Z,11.88
2018-10-19T00:45:42.031Z,11.84
2018-10-19T00:46:41.990Z,11.80
2018-10-19T00:48:34.812Z,11.83
2018-10-19T00:49:34.762Z,11.70
2018-10-19T00:51:27.569Z,11.66
2018-10-19T00:52:27.524Z,11.68
2018-10-19T00:54:20.358Z,11.59
2018-10-19T00:55:20.294Z,11.62
2018-10-19T00:57:13.181Z,11.54
2018-10-19T00:58:13.069Z,11.60
2018-10-19T01:00:05.904Z,11.55
2018-10-19T01:01:05.829Z,11.54
2018-10-19T01:02:58.651Z,11.44
2018-10-19T01:03:58.600Z,11.48
2018-10-19T01:05:51.894Z,11.47
2018-10-19T01:06:51.859Z,11.37
2018-10-19T01:08:45.169Z,11.44
2018-10-19T01:09:45.119Z,11.47
2018-10-19T01:11:37.919Z,11.40
2018-10-19T01:12:37.879Z,11.41
2018-10-19T01:14:30.716Z,11.32
2018-10-19T01:15:30.641Z,11.37
2018-10-19T01:17:23.464Z,11.33
2018-10-19T01:18:23.431Z,11.32
2018-10-19T01:20:16.244Z,11.22
2018-10-19T01:21:16.197Z,11.33
2018-10-19T01:23:09.034Z,11.29
2018-10-19T01:24:08.991Z,11.32
2018-10-19T01:26:01.800Z,11.27
2018-10-19T01:27:01.822Z,11.23
2018-10-19T01:28:54.591Z,11.25
2018-10-19T01:29:54.533Z,11.18
2018-10-19T01:31:47.326Z,11.17
2018-10-19T01:32:47.280Z,11.17
2018-10-19T01:34:40.605Z,11.14
2018-10-19T01:35:40.562Z,11.19
2018-10-19T01:37:33.870Z,11.10
2018-10-19T01:38:33.816Z,11.15
2018-10-19T01:40:26.637Z,11.10
2018-10-19T01:41:26.592Z,11.12
2018-10-19T01:43:19.387Z,11.07
2018-10-19T01:44:19.351Z,10.96
2018-10-19T01:46:12.182Z,10.99
2018-10-19T01:47:12.149Z,11.05
2018-10-19T01:49:05.492Z,11.02
2018-10-19T01:50:05.411Z,10.99
2018-10-19T01:51:58.230Z,10.99
2018-10-19T01:52:58.174Z,10.97
2018-10-19T01:54:50.979Z,10.93
2018-10-19T01:55:50.927Z,10.96
2018-10-19T01:57:43.771Z,10.93
2018-10-19T01:58:43.709Z,10.84
2018-10-19T02:00:36.504Z,10.90
2018-10-19T02:01:36.465Z,10.96
2018-10-19T02:03:29.285Z,10.84
2018-10-19T02:04:29.225Z,10.89
2018-10-19T02:06:22.555Z,10.94
2018-10-19T02:07:22.498Z,10.87
2018-10-19T02:09:15.296Z,10.78
2018-10-19T02:10:15.256Z,10.78
2018-10-19T02:12:08.081Z,10.76
2018-10-19T02:13:08.031Z,10.82
2018-10-19T02:15:01.389Z,10.84
2018-10-19T02:16:01.288Z,10.71
2018-10-19T02:17:54.101Z,10.68
2018-10-19T02:18:54.083Z,10.67
2018-10-19T02:20:46.862Z,10.60
2018-10-19T02:21:46.823Z,10.71
2018-10-19T02:23:39.644Z,10.71
2018-10-19T02:24:39.579Z,10.68
2018-10-19T02:26:32.892Z,10.51
2018-10-19T02:27:32.856Z,10.51
2018-10-19T02:29:25.673Z,10.51
2018-10-19T02:30:25.617Z,10.48
2018-10-19T02:32:18.421Z,10.42
2018-10-19T02:33:18.438Z,10.41
2018-10-19T02:35:11.256Z,10.30
2018-10-19T02:36:11.149Z,10.37
2018-10-19T02:38:03.968Z,10.30
2018-10-19T02:39:03.991Z,10.30
2018-10-19T02:40:56.725Z,10.22
2018-10-19T02:41:56.680Z,10.28
2018-10-19T02:43:49.493Z,10.25
2018-10-19T02:44:49.457Z,10.23
2018-10-19T02:46:42.238Z,10.22
2018-10-19T02:47:42.204Z,10.33
2018-10-19T02:49:35.522Z,10.26
2018-10-19T02:50:35.457Z,10.28
2018-10-19T02:52:28.288Z,10.30
2018-10-19T02:53:28.228Z,10.25
2018-10-19T02:55:21.042Z,10.23
2018-10-19T02:56:20.993Z,10.26
2018-10-19T02:58:14.292Z,10.23
2018-10-19T02:59:14.312Z,10.19
2018-10-19T03:01:07.555Z,10.30
2018-10-19T03:02:07.529Z,10.25
2018-10-19T03:04:00.829Z,10.19
2018-10-19T03:05:00.781Z,10.26
2018-10-19T03:06:54.078Z,10.20
2018-10-19T03:07:54.040Z,10.17
2018-10-19T03:09:46.871Z,10.23
2018-10-19T03:10:46.800Z,10.23
2018-10-19T03:12:40.092Z,10.26
2018-10-19T03:13:40.045Z,10.23
2018-10-19T03:15:32.874Z,10.23
2018-10-19T03:16:32.828Z,10.15
2018-10-19T03:18:25.619Z,10.10
2018-10-19T03:19:25.574Z,10.13
2018-10-19T03:21:18.420Z,10.09
2018-10-19T03:22:18.331Z,10.10
2018-10-19T03:24:11.170Z,10.05
2018-10-19T03:25:11.100Z,9.94
2018-10-19T03:27:03.948Z,9.94
2018-10-19T03:28:03.887Z,9.89
2018-10-19T03:29:56.679Z,9.83
2018-10-19T03:30:56.763Z,9.86
2018-10-19T03:32:49.439Z,9.87
2018-10-19T03:33:49.390Z,9.80
2018-10-19T03:35:42.219Z,9.73
2018-10-19T03:36:42.160Z,9.68
2018-10-19T03:38:34.952Z,9.72
2018-10-19T03:39:34.931Z,9.72
2018-10-19T03:41:27.735Z,9.73
2018-10-19T03:42:27.689Z,9.68
2018-10-19T03:44:20.487Z,9.66
2018-10-19T03:45:20.445Z,9.73
2018-10-19T03:47:13.284Z,9.64
2018-10-19T03:48:13.197Z,9.61
2018-10-19T03:50:06.001Z,9.58
2018-10-19T03:51:06.014Z,9.59
2018-10-19T03:52:59.296Z,9.55
2018-10-19T03:53:59.231Z,9.43
2018-10-19T03:55:52.079Z,9.46
2018-10-19T03:56:52.019Z,9.44
2018-10-19T03:58:44.798Z,9.40
2018-10-19T03:59:44.769Z,9.39
2018-10-19T04:01:38.065Z,9.31
2018-10-19T04:02:38.066Z,9.31
2018-10-19T04:04:31.313Z,9.31
2018-10-19T04:05:31.272Z,9.31
2018-10-19T04:07:24.096Z,9.31
2018-10-19T04:08:24.052Z,9.25
2018-10-19T04:10:17.344Z,9.23
2018-10-19T04:11:17.372Z,9.18
2018-10-19T04:13:10.127Z,9.19
2018-10-19T04:14:10.073Z,9.13
2018-10-19T04:16:02.881Z,9.00
2018-10-19T04:17:02.894Z,9.03
2018-10-19T04:18:55.664Z,9.03
2018-10-19T04:19:55.609Z,9.08
2018-10-19T04:21:48.422Z,9.13
2018-10-19T04:22:48.379Z,9.14
2018-10-19T04:24:41.189Z,9.02
2018-10-19T04:25:41.144Z,9.03
2018-10-19T04:27:34.002Z,9.14
2018-10-19T04:28:33.887Z,9.04
2018-10-19T04:30:26.717Z,9.06
2018-10-19T04:31:26.654Z,9.11
2018-10-19T04:33:19.969Z,9.10
2018-10-19T04:34:19.918Z,9.19
2018-10-19T04:36:12.715Z,9.22
2018-10-19T04:37:12.673Z,9.23
2018-10-19T04:39:05.571Z,9.26
2018-10-19T04:40:05.423Z,9.26
2018-10-19T04:41:58.457Z,9.32
2018-10-19T04:42:58.193Z,9.39
2018-10-19T04:44:51.024Z,9.46
2018-10-19T04:45:50.969Z,9.54
2018-10-19T04:47:43.780Z,9.48
2018-10-19T04:48:43.739Z,9.59
2018-10-19T04:50:36.549Z,9.55
2018-10-19T04:51:36.522Z,9.62
2018-10-19T04:53:29.346Z,9.58
2018-10-19T04:54:29.269Z,9.58
2018-10-19T04:56:22.093Z,9.56
2018-10-19T04:57:22.043Z,9.61
2018-10-19T04:59:14.986Z,9.59
2018-10-19T05:00:14.811Z,9.62
2018-10-19T05:02:08.111Z,9.69
2018-10-19T05:03:08.144Z,9.66
2018-10-19T05:05:00.880Z,9.69
2018-10-19T05:06:00.991Z,9.68
2018-10-19T05:07:54.153Z,9.80
2018-10-19T05:08:54.079Z,9.76
2018-10-19T05:10:47.409Z,9.84
2018-10-19T05:11:47.346Z,9.89
2018-10-19T05:13:40.176Z,9.92
2018-10-19T05:14:40.130Z,9.92
2018-10-19T05:16:32.935Z,10.01
2018-10-19T05:17:32.891Z,9.98
2018-10-19T05:19:25.701Z,9.99
2018-10-19T05:20:25.650Z,9.92
2018-10-19T05:22:18.446Z,9.92
2018-10-19T05:23:18.450Z,10.04
2018-10-19T05:25:11.711Z,9.99
2018-10-19T05:26:11.738Z,9.94
2018-10-19T05:28:04.461Z,10.02
2018-10-19T05:29:04.506Z,10.12
2018-10-19T05:30:57.275Z,10.04
2018-10-19T05:31:57.228Z,10.01
2018-10-19T05:33:50.014Z,10.09
2018-10-19T05:34:49.955Z,10.07
2018-10-19T05:36:42.771Z,10.13
2018-10-19T05:37:42.720Z,10.07
2018-10-19T05:39:35.546Z,10.12
2018-10-19T05:40:35.477Z,10.05
2018-10-19T05:42:28.299Z,10.10
2018-10-19T05:43:28.256Z,10.10
2018-10-19T05:45:21.560Z,10.05
2018-10-19T05:46:21.505Z,10.09
2018-10-19T05:48:14.320Z,10.12
2018-10-19T05:49:14.272Z,10.05
2018-10-19T05:51:07.096Z,10.07
2018-10-19T05:52:07.099Z,10.10
2018-10-19T05:53:59.842Z,10.16
2018-10-19T05:54:59.801Z,10.02
2018-10-19T05:56:53.132Z,10.13
2018-10-19T05:57:53.093Z,10.07
2018-10-19T05:59:45.896Z,10.09
2018-10-19T06:00:45.852Z,10.09
2018-10-19T06:02:38.728Z,10.12
2018-10-19T06:03:38.602Z,10.12
2018-10-19T06:05:31.412Z,10.02
2018-10-19T06:06:31.443Z,10.07
2018-10-19T06:08:24.708Z,10.02
2018-10-19T06:09:24.641Z,10.15
2018-10-19T06:11:17.455Z,10.12
2018-10-19T06:12:17.397Z,10.15
2018-10-19T06:14:10.807Z,10.12
2018-10-19T06:15:10.664Z,9.97
2018-10-19T06:17:03.504Z,10.02
2018-10-19T06:18:03.426Z,10.01
2018-10-19T06:19:56.761Z,9.98
2018-10-19T06:20:56.698Z,9.98
2018-10-19T06:22:49.493Z,9.98
2018-10-19T06:23:49.444Z,10.04
2018-10-19T06:25:42.294Z,9.97
2018-10-19T06:26:42.216Z,9.95
2018-10-19T06:28:35.029Z,9.95
2018-10-19T06:29:34.991Z,9.98
2018-10-19T06:31:27.782Z,9.89
2018-10-19T06:32:27.752Z,9.99
2018-10-19T06:34:20.556Z,10.04
2018-10-19T06:35:20.503Z,10.05
2018-10-19T06:37:13.803Z,10.09
2018-10-19T06:38:13.857Z,10.05
2018-10-19T06:40:06.573Z,10.09
2018-10-19T06:41:06.562Z,10.04
2018-10-19T06:42:59.318Z,10.10
2018-10-19T06:43:59.328Z,10.05
2018-10-19T06:45:52.595Z,10.12
2018-10-19T06:46:52.548Z,10.25
2018-10-19T06:48:45.855Z,10.26
2018-10-19T06:49:45.815Z,10.33
2018-10-19T06:51:38.613Z,10.31
2018-10-19T06:52:38.568Z,10.34
2018-10-19T06:54:31.394Z,10.42
2018-10-19T06:55:31.333Z,10.42
2018-10-19T06:57:24.149Z,10.51
2018-10-19T06:58:24.099Z,10.53
2018-10-19T07:00:17.430Z,10.64
2018-10-19T07:01:17.370Z,10.61
2018-10-19T07:03:10.165Z,10.74
2018-10-19T07:04:10.134Z,10.72
2018-10-19T07:06:02.963Z,10.78
2018-10-19T07:07:02.897Z,10.79
2018-10-19T07:08:55.700Z,10.92
2018-10-19T07:09:55.663Z,10.94
2018-10-19T07:11:48.477Z,10.89
2018-10-19T07:12:48.420Z,11.07
2018-10-19T07:14:41.226Z,11.02
2018-10-19T07:15:41.187Z,11.04
2018-10-19T07:17:33.995Z,11.15
2018-10-19T07:18:33.951Z,11.17
2018-10-19T07:20:26.770Z,11.17
2018-10-19T07:21:26.719Z,11.23
2018-10-19T07:23:20.014Z,11.23
2018-10-19T07:24:19.976Z,11.30
2018-10-19T07:26:12.818Z,11.41
2018-10-19T07:27:12.734Z,11.45
2018-10-19T07:29:05.587Z,11.43
2018-10-19T07:30:05.504Z,11.43
2018-10-19T07:31:58.871Z,11.48
2018-10-19T07:32:58.762Z,11.45
2018-10-19T07:34:51.567Z,11.57
2018-10-19T07:35:51.529Z,11.54
2018-10-19T07:37:44.350Z,11.57
2018-10-19T07:38:44.304Z,11.63
2018-10-19T07:40:37.598Z,11.68
2018-10-19T07:41:37.557Z,11.68
2018-10-19T07:43:30.375Z,11.65
2018-10-19T07:44:30.324Z,11.80
2018-10-19T07:46:24.135Z,11.81
2018-10-19T07:47:24.266Z,11.80
2018-10-19T07:49:16.907Z,11.86
2018-10-19T07:50:16.916Z,11.88
2018-10-19T07:52:10.176Z,11.91
2018-10-19T07:53:10.130Z,12.03
2018-10-19T07:55:02.919Z,12.02
2018-10-19T07:56:02.927Z,12.03
2018-10-19T07:57:55.719Z,12.07
2018-10-19T07:58:55.689Z,12.17
2018-10-19T08:00:48.525Z,12.18
2018-10-19T08:01:48.416Z,12.20
2018-10-19T08:03:41.245Z,12.21
2018-10-19T08:04:41.171Z,12.24
2018-10-19T08:06:33.977Z,12.24
2018-10-19T08:07:33.943Z,12.35
2018-10-19T08:09:27.376Z,12.39
2018-10-19T08:10:27.223Z,12.39
2018-10-19T08:12:20.015Z,12.39
2018-10-19T08:13:19.983Z,12.46
2018-10-19T08:15:12.807Z,12.54
2018-10-19T08:16:12.756Z,12.62
2018-10-19T08:18:05.556Z,12.65
2018-10-19T08:19:05.516Z,12.70
2018-10-19T08:20:58.386Z,12.68
2018-10-19T08:21:58.281Z,12.70
2018-10-19T08:23:51.128Z,12.86
2018-10-19T08:24:51.063Z,12.90
2018-10-19T08:26:44.381Z,12.94
2018-10-19T08:27:44.327Z,12.97
2018-10-19T08:29:37.158Z,13.00
2018-10-19T08:30:37.107Z,13.05
2018-10-19T08:32:29.905Z,12.98
2018-10-19T08:33:29.874Z,12.94
2018-10-19T08:35:22.681Z,13.11
2018-10-19T08:36:22.624Z,13.03
2018-10-19T08:38:15.453Z,13.08
2018-10-19T08:39:15.397Z,13.18
2018-10-19T08:41:08.268Z,13.19
2018-10-19T08:42:08.167Z,13.19
2018-10-19T08:44:01.472Z,13.23
2018-10-19T08:45:01.459Z,13.33
2018-10-19T08:46:54.306Z,13.28
2018-10-19T08:47:54.222Z,13.41
2018-10-19T08:49:47.024Z,13.44
2018-10-19T08:50:46.997Z,13.53
2018-10-19T08:52:39.788Z,13.52
2018-10-19T08:53:39.785Z,13.59
2018-10-19T08:55:32.545Z,13.67
2018-10-19T08:56:32.515Z,13.68
2018-10-19T08:58:25.372Z,13.68
2018-10-19T08:59:25.276Z,13.67
2018-10-19T09:01:18.590Z,13.78
2018-10-19T09:02:18.556Z,13.77
2018-10-19T09:04:11.930Z,13.86
2018-10-19T09:05:11.884Z,13.93
2018-10-19T09:07:04.625Z,14.00
2018-10-19T09:08:04.617Z,13.95
2018-10-19T09:09:57.891Z,14.00
2018-10-19T09:10:57.925Z,14.04
2018-10-19T09:12:51.294Z,14.11
2018-10-19T09:13:51.129Z,14.05
2018-10-19T09:15:43.940Z,14.15
2018-10-19T09:16:43.896Z,14.20
2018-10-19T09:18:37.294Z,14.20
2018-10-19T09:19:37.179Z,14.14
2018-10-19T09:21:29.983Z,14.10
2018-10-19T09:22:29.961Z,14.17
2018-10-19T09:24:23.259Z,14.20
2018-10-19T09:25:23.220Z,14.18
2018-10-19T09:27:16.111Z,14.18
2018-10-19T09:28:15.984Z,14.20
2018-10-19T09:30:08.811Z,14.30
2018-10-19T09:31:08.758Z,14.26
2018-10-19T09:33:01.601Z,14.26
2018-10-19T09:34:01.541Z,14.29
2018-10-19T09:35:54.428Z,14.37
2018-10-19T09:36:54.343Z,14.40
2018-10-19T09:38:47.631Z,14.26
2018-10-19T09:39:47.581Z,14.28
2018-10-19T09:41:40.407Z,14.40
2018-10-19T09:42:40.365Z,14.32
2018-10-19T09:44:33.674Z,14.26
2018-10-19T09:45:33.634Z,14.29
2018-10-19T09:47:26.520Z,14.32
2018-10-19T09:48:26.412Z,14.36
2018-10-19T09:50:19.210Z,14.44
2018-10-19T09:51:19.177Z,14.50
2018-10-19T09:53:12.089Z,14.51
2018-10-19T09:54:11.963Z,14.54
2018-10-19T09:56:05.314Z,14.59
2018-10-19T09:57:05.253Z,14.60
2018-10-19T09:58:58.552Z,14.65
2018-10-19T09:59:58.495Z,14.69
2018-10-19T10:01:51.328Z,14.69
2018-10-19T10:02:51.262Z,14.70
2018-10-19T10:04:44.073Z,14.72
2018-10-19T10:05:44.038Z,14.70
2018-10-19T10:07:36.860Z,14.69
2018-10-19T10:08:36.813Z,14.62
2018-10-19T10:10:29.628Z,14.77
2018-10-19T10:11:29.588Z,14.72
2018-10-19T10:13:22.905Z,14.78
2018-10-19T10:14:22.876Z,14.79
2018-10-19T10:16:15.657Z,14.86
2018-10-19T10:17:15.686Z,14.81
2018-10-19T10:19:08.973Z,14.69
2018-10-19T10:20:08.891Z,14.70
2018-10-19T10:22:01.732Z,14.73
2018-10-19T10:23:01.662Z,14.86
2018-10-19T10:24:54.679Z,14.82
2018-10-19T10:25:54.535Z,14.86
2018-10-19T10:27:47.334Z,15.03
2018-10-19T10:28:47.304Z,15.04
2018-10-19T10:30:40.615Z,15.09
2018-10-19T10:31:40.568Z,15.06
2018-10-19T10:33:33.868Z,15.22
2018-10-19T10:34:33.841Z,15.07
2018-10-19T10:36:26.669Z,15.22
2018-10-19T10:37:26.614Z,15.21
2018-10-19T10:39:19.546Z,15.24
2018-10-19T10:40:19.507Z,15.24
2018-10-19T10:42:12.678Z,15.25
2018-10-19T10:43:12.695Z,15.28
2018-10-19T10:45:05.500Z,15.24
2018-10-19T10:46:05.496Z,15.25
2018-10-19T10:47:58.752Z,15.21
2018-10-19T10:48:58.735Z,15.19
2018-10-19T10:50:52.049Z,15.36
2018-10-19T10:51:51.989Z,15.40
2018-10-19T10:53:45.309Z,15.51
2018-10-19T10:54:45.265Z,15.44
2018-10-19T10:56:38.089Z,15.19
2018-10-19T10:57:38.042Z,15.24
2018-10-19T10:59:31.379Z,15.31
2018-10-19T11:00:31.314Z,15.46
2018-10-19T11:02:24.130Z,15.65
2018-10-19T11:03:24.097Z,15.76
2018-10-19T11:05:17.390Z,15.90
2018-10-19T11:06:17.355Z,15.79
2018-10-19T11:08:10.673Z,15.90
2018-10-19T11:09:10.632Z,15.90
2018-10-19T11:11:03.455Z,16.08
2018-10-19T11:12:03.400Z,16.28
2018-10-19T11:13:56.220Z,16.96
2018-10-19T11:14:56.198Z,17.36
2018-10-19T11:16:49.510Z,18.11
2018-10-19T11:17:49.463Z,18.31
2018-10-19T11:19:42.769Z,19.09
2018-10-19T11:20:42.735Z,19.19
2018-10-19T11:22:35.570Z,19.73
2018-10-19T11:23:35.526Z,20.18
2018-10-19T11:25:28.351Z,20.74
2018-10-19T11:26:28.311Z,20.99
2018-10-19T11:28:21.140Z,20.96
2018-10-19T11:29:21.099Z,21.03
2018-10-19T11:31:14.467Z,20.44
2018-10-19T11:32:14.380Z,20.39
2018-10-19T11:34:07.326Z,20.43
2018-10-19T11:35:07.206Z,20.70
2018-10-19T11:37:00.560Z,20.80
2018-10-19T11:38:00.507Z,20.77
2018-10-19T11:39:53.830Z,20.60
2018-10-19T11:40:53.784Z,20.31
2018-10-19T11:42:47.112Z,20.34
2018-10-19T11:43:47.070Z,20.34
2018-10-19T11:45:39.919Z,20.48
2018-10-19T11:46:39.842Z,20.56
2018-10-19T11:48:33.241Z,20.88
2018-10-19T11:49:33.151Z,20.93
2018-10-19T11:51:26.477Z,21.05
2018-10-19T11:52:26.485Z,20.99
2018-10-19T11:54:19.264Z,21.09
2018-10-19T11:55:19.211Z,21.12
2018-10-19T11:57:12.592Z,21.06
2018-10-19T11:58:12.521Z,20.99
2018-10-19T12:00:05.832Z,20.56
2018-10-19T12:01:05.855Z,20.60
2018-10-19T12:02:58.621Z,20.66
2018-10-19T12:03:58.598Z,20.37
2018-10-19T12:05:51.410Z,20.10
2018-10-19T12:06:51.367Z,20.09
2018-10-19T12:08:44.701Z,20.34
2018-10-19T12:09:44.657Z,20.39
2018-10-19T12:11:37.978Z,20.13
2018-10-19T12:12:37.932Z,19.85
2018-10-19T12:14:31.247Z,19.59
2018-10-19T12:15:31.215Z,19.39
2018-10-19T12:17:24.558Z,19.55
2018-10-19T12:18:24.496Z,19.67
2018-10-19T12:20:17.818Z,19.74
2018-10-19T12:21:17.824Z,19.63
2018-10-19T12:23:11.139Z,19.64
2018-10-19T12:24:11.111Z,19.64
2018-10-19T12:26:04.515Z,19.64
2018-10-19T12:27:04.431Z,19.56
2018-10-19T12:28:57.216Z,19.47
2018-10-19T12:29:57.179Z,19.41
2018-10-19T12:31:50.006Z,19.55
2018-10-19T12:32:49.958Z,19.40
2018-10-19T12:34:43.271Z,19.40
2018-10-19T12:35:43.247Z,19.31
2018-10-19T12:37:36.077Z,19.12
2018-10-19T12:38:36.022Z,19.07
2018-10-19T12:40:29.353Z,18.77
2018-10-19T12:41:29.309Z,18.81
2018-10-19T12:43:22.624Z,18.77
2018-10-19T12:44:22.582Z,18.71
2018-10-19T12:46:15.413Z,18.65
2018-10-19T12:47:15.411Z,18.73
2018-10-19T12:49:08.252Z,19.15
2018-10-19T12:50:08.137Z,19.09
2018-10-19T12:52:00.977Z,19.26
2018-10-19T12:53:00.923Z,19.27
2018-10-19T12:54:53.780Z,19.59
2018-10-19T12:55:53.709Z,19.54
2018-10-19T12:57:47.048Z,19.30
2018-10-19T12:58:46.977Z,19.34
2018-10-19T13:00:39.785Z,19.39
2018-10-19T13:01:39.763Z,19.39
2018-10-19T13:03:32.676Z,19.49
2018-10-19T13:04:32.558Z,19.51
2018-10-19T13:06:25.859Z,19.09
2018-10-19T13:07:25.814Z,18.92
2018-10-19T13:09:19.188Z,18.74
2018-10-19T13:10:19.111Z,18.65
2018-10-19T13:12:12.435Z,18.62
2018-10-19T13:13:12.455Z,18.78
2018-10-19T13:15:05.731Z,18.75
2018-10-19T13:16:05.683Z,18.93
2018-10-19T13:17:59.059Z,19.08
2018-10-19T13:18:58.944Z,19.12
2018-10-19T13:20:52.313Z,19.18
2018-10-19T13:21:52.232Z,19.00
2018-10-19T13:23:45.560Z,18.83
2018-10-19T13:24:45.509Z,18.59
2018-10-19T13:26:38.821Z,18.59
2018-10-19T13:27:38.792Z,18.44
2018-10-19T13:29:32.121Z,18.19
2018-10-19T13:30:32.071Z,18.35
2018-10-19T13:32:24.912Z,18.47
2018-10-19T13:33:24.864Z,18.56
2018-10-19T13:35:17.710Z,18.15
2018-10-19T13:36:17.649Z,18.19
2018-10-19T13:38:10.946Z,18.47
2018-10-19T13:39:10.992Z,18.52
2018-10-19T13:41:04.246Z,18.58
2018-10-19T13:42:04.209Z,18.78
2018-10-19T13:43:57.520Z,18.81
2018-10-19T13:44:57.535Z,18.80
2018-10-19T13:46:50.285Z,18.88
2018-10-19T13:47:50.250Z,18.77
2018-10-19T13:49:43.594Z,18.63
2018-10-19T13:50:43.522Z,18.63
2018-10-19T13:52:36.348Z,18.59
2018-10-19T13:53:36.307Z,18.44
2018-10-19T13:55:29.645Z,18.35
2018-10-19T13:56:29.587Z,18.44
2018-10-19T13:58:22.464Z,18.52
2018-10-19T13:59:22.379Z,18.63
2018-10-19T14:01:15.205Z,18.93
2018-10-19T14:02:15.197Z,18.99
2018-10-19T14:04:08.501Z,19.19
2018-10-19T14:05:08.521Z,19.29
2018-10-19T14:07:01.259Z,19.45
2018-10-19T14:08:01.223Z,19.51
2018-10-19T14:09:54.548Z,19.55
2018-10-19T14:10:54.560Z,19.33
2018-10-19T14:12:47.316Z,19.30
2018-10-19T14:13:47.292Z,19.22
2018-10-19T14:15:40.621Z,19.18
2018-10-19T14:16:40.573Z,19.21
2018-10-19T14:18:33.389Z,19.51
2018-10-19T14:19:33.375Z,19.63
2018-10-19T14:21:26.186Z,19.79
2018-10-19T14:22:26.132Z,19.82
2018-10-19T14:24:19.459Z,19.73
2018-10-19T14:25:19.419Z,19.86
2018-10-19T14:27:12.340Z,19.99
2018-10-19T14:28:12.209Z,20.03
2018-10-19T14:30:05.542Z,19.89
2018-10-19T14:31:05.479Z,19.91
2018-10-19T14:32:58.862Z,19.58
2018-10-19T14:33:58.763Z,19.40
2018-10-19T14:35:52.961Z,19.41
2018-10-19T14:36:52.897Z,19.26
2018-10-19T14:38:45.718Z,19.27
2018-10-19T14:39:45.688Z,19.22
2018-10-19T14:41:38.997Z,19.07
2018-10-19T14:42:38.967Z,19.07
2018-10-19T14:44:32.263Z,19.14
2018-10-19T14:45:32.236Z,19.16
2018-10-19T14:47:25.678Z,19.02
2018-10-19T14:48:25.529Z,18.88
2018-10-19T14:50:18.849Z,18.93
2018-10-19T14:51:18.813Z,18.90
2018-10-19T14:53:12.223Z,18.75
2018-10-19T14:54:12.129Z,18.71
2018-10-19T14:56:05.436Z,18.43
2018-10-19T14:57:05.484Z,18.33
2018-10-19T14:58:58.832Z,18.37
2018-10-19T14:59:58.716Z,18.38
2018-10-19T15:01:52.067Z,18.47
2018-10-19T15:02:52.014Z,18.53
2018-10-19T15:04:45.342Z,18.60
2018-10-19T15:05:45.283Z,18.58
2018-10-19T15:07:38.110Z,18.55
2018-10-19T15:08:38.062Z,18.63
2018-10-19T15:10:31.664Z,18.60
2018-10-19T15:11:31.507Z,18.47
2018-10-19T15:13:24.685Z,18.52
2018-10-19T15:14:24.621Z,18.50
2018-10-19T15:16:17.932Z,18.37
2018-10-19T15:17:17.900Z,18.35
2018-10-19T15:19:11.230Z,18.47
2018-10-19T15:20:11.174Z,18.38
2018-10-19T15:22:04.630Z,18.28
2018-10-19T15:23:04.455Z,18.26
2018-10-19T15:24:57.758Z,18.23
2018-10-19T15:25:57.725Z,18.26
2018-10-19T15:27:51.045Z,18.25
2018-10-19T15:28:51.007Z,18.25
2018-10-19T15:30:43.820Z,18.35
2018-10-19T15:31:43.785Z,18.22
2018-10-19T15:33:37.117Z,18.26
2018-10-19T15:34:37.055Z,18.25
2018-10-19T15:36:30.403Z,18.25
2018-10-19T15:37:30.347Z,18.33
2018-10-19T15:39:23.662Z,18.22
2018-10-19T15:40:23.619Z,18.25
2018-10-19T15:42:16.912Z,18.18
2018-10-19T15:43:16.894Z,18.15
2018-10-19T15:45:10.279Z,18.25
2018-10-19T15:46:10.155Z,18.19
2018-10-19T15:48:03.533Z,18.25
2018-10-19T15:49:03.439Z,18.23
2018-10-19T15:50:56.303Z,18.18
2018-10-19T15:51:56.216Z,18.20
2018-10-19T15:53:49.546Z,18.18
2018-10-19T15:54:49.495Z,18.13
2018-10-19T15:56:42.868Z,18.16
2018-10-19T15:57:42.773Z,18.13
2018-10-19T15:59:35.602Z,18.10
2018-10-19T16:00:35.650Z,18.10
2018-10-19T16:02:28.371Z,18.04
2018-10-19T16:03:28.337Z,17.98
2018-10-19T16:05:21.660Z,17.98
2018-10-19T16:06:21.602Z,17.92
2018-10-19T16:08:14.923Z,17.83
2018-10-19T16:09:14.921Z,17.89
2018-10-19T16:11:08.216Z,17.82
2018-10-19T16:12:08.162Z,17.82
2018-10-19T16:14:01.464Z,17.63
2018-10-19T16:15:01.474Z,17.63
2018-10-19T16:16:54.766Z,17.54
2018-10-19T16:17:54.725Z,17.45
2018-10-19T16:19:48.041Z,17.46
2018-10-19T16:20:48.000Z,17.39
2018-10-19T16:22:41.323Z,17.33
2018-10-19T16:23:41.278Z,17.24
2018-10-19T16:25:34.089Z,17.30
2018-10-19T16:26:34.046Z,17.29
2018-10-19T16:28:26.974Z,17.15
2018-10-19T16:29:26.836Z,17.19
2018-10-19T16:31:20.151Z,17.06
2018-10-19T16:32:20.109Z,17.02
2018-10-19T16:34:12.916Z,16.99
2018-10-19T16:35:12.877Z,16.96
2018-10-19T16:37:05.727Z,16.96
2018-10-19T16:38:05.673Z,16.89
2018-10-19T16:39:58.989Z,16.78
2018-10-19T16:40:58.958Z,16.74
2018-10-19T16:42:51.777Z,16.75
2018-10-19T16:43:51.742Z,16.64
2018-10-19T16:45:44.558Z,16.54
2018-10-19T16:46:44.539Z,16.49
2018-10-19T16:48:37.348Z,16.39
2018-10-19T16:49:37.288Z,16.39
2018-10-19T16:51:30.099Z,16.28
2018-10-19T16:52:30.188Z,16.35
2018-10-19T16:54:23.389Z,16.24
2018-10-19T16:55:23.345Z,16.10
2018-10-19T16:57:16.746Z,16.13
2018-10-19T16:58:16.679Z,16.15
2018-10-19T17:00:09.449Z,16.08
2018-10-19T17:01:09.397Z,16.04
2018-10-19T17:03:02.239Z,16.01
2018-10-19T17:04:02.212Z,16.00
2018-10-19T17:05:55.006Z,15.98
2018-10-19T17:06:54.942Z,15.95
2018-10-19T17:08:47.761Z,15.90
2018-10-19T17:09:47.718Z,15.83
2018-10-19T17:11:41.033Z,15.76
2018-10-19T17:12:41.064Z,15.75
2018-10-19T17:14:33.815Z,15.62
2018-10-19T17:15:33.772Z,15.67
2018-10-19T17:17:26.605Z,15.61
2018-10-19T17:18:26.552Z,15.54
2018-10-19T17:20:19.371Z,15.43
2018-10-19T17:21:19.325Z,15.40
2018-10-19T17:23:12.136Z,15.42
2018-10-19T17:24:12.139Z,15.39
2018-10-19T17:26:04.926Z,15.33
2018-10-19T17:27:04.935Z,15.25
2018-10-19T17:28:58.228Z,15.24
2018-10-19T17:29:58.164Z,15.19
2018-10-19T17:31:51.003Z,15.21
2018-10-19T17:32:50.969Z,15.15
2018-10-19T17:34:43.746Z,15.14
2018-10-19T17:35:43.692Z,15.09
2018-10-19T17:37:36.566Z,15.06
2018-10-19T17:38:36.470Z,14.97
2018-10-19T17:40:29.301Z,14.99
2018-10-19T17:41:29.255Z,15.02
2018-10-19T17:43:22.656Z,14.96
2018-10-19T17:44:22.514Z,14.85
2018-10-19T17:46:15.335Z,14.91
2018-10-19T17:47:15.389Z,14.77
2018-10-19T17:49:08.170Z,14.63
2018-10-19T17:50:08.091Z,14.68
2018-10-19T17:52:00.930Z,14.66
2018-10-19T17:53:00.914Z,14.58
2018-10-19T17:54:54.642Z,14.44
2018-10-19T17:55:54.137Z,14.50
2018-10-19T17:57:47.440Z,14.48
2018-10-19T17:58:47.397Z,14.36
2018-10-19T18:00:40.255Z,14.40
2018-10-19T18:01:40.163Z,14.40
2018-10-19T18:03:32.977Z,14.30
2018-10-19T18:04:32.950Z,14.32
2018-10-19T18:06:26.253Z,14.36
2018-10-19T18:07:26.208Z,14.26
2018-10-19T18:09:19.037Z,14.20
2018-10-19T18:10:18.992Z,14.26
2018-10-19T18:12:11.807Z,14.28
2018-10-19T18:13:11.759Z,14.25
2018-10-19T18:15:05.055Z,14.20
2018-10-19T18:16:05.095Z,14.25
2018-10-19T18:17:57.905Z,14.26
2018-10-19T18:18:57.821Z,14.25
2018-10-19T18:20:50.664Z,14.28
2018-10-19T18:21:50.788Z,14.29
2018-10-19T18:23:43.464Z,14.28
2018-10-19T18:24:43.386Z,14.20
2018-10-19T18:26:36.197Z,14.29
2018-10-19T18:27:36.153Z,14.29
2018-10-19T18:29:28.954Z,14.32
2018-10-19T18:30:28.926Z,14.30
2018-10-19T18:32:22.254Z,14.28
2018-10-19T18:33:22.184Z,14.26
2018-10-19T18:35:15.538Z,14.43
2018-10-19T18:36:15.454Z,14.28
2018-10-19T18:38:08.334Z,14.33